createdAt,value
2016-06-08T00:00:55.964Z,14.03
2016-06-08T00:02:07.328Z,14
2016-06-08T00:02:57.751Z,13.98
2016-06-08T00:04:13.800Z,14.08
2016-06-08T00:04:54.491Z,14.16
2016-06-08T00:06:25.950Z,14.23
2016-06-08T00:07:04.262Z,14.2
2016-06-08T00:09:06.846Z,14.2
2016-06-08T00:09:19.474Z,14.23
2016-06-08T00:10:19.522Z,14.31
2016-06-08T00:11:20.135Z,14.23
2016-06-08T00:12:19.559Z,14.25
2016-06-08T00:13:19.562Z,14.19
2016-06-08T00:14:38.987Z,14.25
2016-06-08T00:15:21.036Z,14.34
2016-06-08T00:16:19.649Z,14.36
2016-06-08T00:17:32.385Z,14.38
2016-06-08T00:18:19.669Z,14.33
2016-06-08T00:19:19.750Z,14.41
2016-06-08T00:20:19.690Z,14.4
2016-06-08T00:21:32.459Z,14.43
2016-06-08T00:22:19.743Z,14.33
2016-06-08T00:23:45.448Z,14.43
2016-06-08T00:24:29.372Z,14.4
2016-06-08T00:25:29.517Z,14.38
2016-06-08T00:26:30.737Z,14.41
2016-06-08T00:28:00.740Z,14.48
2016-06-08T00:28:39.055Z,14.43
2016-06-08T00:30:04.589Z,14.41
2016-06-08T00:30:39.092Z,14.51
2016-06-08T00:31:39.111Z,14.38
2016-06-08T00:32:58.317Z,14.45
2016-06-08T00:33:42.194Z,14.36
2016-06-08T00:34:39.166Z,14.38
2016-06-08T00:35:39.199Z,14.51
2016-06-08T00:36:52.061Z,14.4
2016-06-08T00:37:39.252Z,14.56
2016-06-08T00:38:59.066Z,14.53
2016-06-08T00:39:42.148Z,14.52
2016-06-08T00:41:41.888Z,14.56
2016-06-08T00:41:54.466Z,14.51
2016-06-08T00:42:54.547Z,14.56
2016-06-08T00:43:54.565Z,14.53
2016-06-08T00:45:07.333Z,14.53
2016-06-08T00:45:54.616Z,14.55
2016-06-08T00:46:55.885Z,14.56
2016-06-08T00:47:54.654Z,14.55
2016-06-08T00:48:54.516Z,14.53
2016-06-08T00:49:54.690Z,14.52
2016-06-08T00:51:02.380Z,14.44
2016-06-08T00:51:54.742Z,14.41
2016-06-08T00:53:01.026Z,14.51
2016-06-08T00:53:54.779Z,14.41
2016-06-08T00:54:54.797Z,14.37
2016-06-08T00:55:54.832Z,14.43
2016-06-08T00:56:55.146Z,14.4
2016-06-08T00:58:14.071Z,14.49
2016-06-08T00:58:56.293Z,14.38
2016-06-08T00:59:54.936Z,14.37
2016-06-08T01:01:07.673Z,14.36
2016-06-08T01:01:55.066Z,14.49
2016-06-08T01:02:54.975Z,14.45
2016-06-08T01:03:55.025Z,14.44
2016-06-08T01:05:20.702Z,14.41
2016-06-08T01:05:55.045Z,14.4
2016-06-08T01:06:55.033Z,14.36
2016-06-08T01:07:55.066Z,14.44
2016-06-08T01:08:55.132Z,14.41
2016-06-08T01:10:07.697Z,14.41
2016-06-08T01:10:55.152Z,14.38
2016-06-08T01:12:20.846Z,14.4
2016-06-08T01:13:04.799Z,14.38
2016-06-08T01:14:04.833Z,14.25
2016-06-08T01:15:05.008Z,14.25
2016-06-08T01:17:45.781Z,14.18
2016-06-08T01:18:20.127Z,14.22
2016-06-08T01:19:20.146Z,14.18
2016-06-08T01:20:39.368Z,14.12
2016-06-08T01:21:20.151Z,14.16
2016-06-08T01:22:39.545Z,14.15
2016-06-08T01:23:23.266Z,14.11
2016-06-08T01:24:51.534Z,14.05
2016-06-08T01:25:20.271Z,14.08
2016-06-08T01:26:20.711Z,14.08
2016-06-08T01:27:20.387Z,13.95
2016-06-08T01:28:20.311Z,13.97
2016-06-08T01:29:20.392Z,13.97
2016-06-08T01:30:20.207Z,13.93
2016-06-08T01:31:20.444Z,14.03
2016-06-08T01:32:20.415Z,13.94
2016-06-08T01:33:20.433Z,13.97
2016-06-08T01:34:39.655Z,13.94
2016-06-08T01:35:20.486Z,14
2016-06-08T01:36:20.489Z,13.95
2016-06-08T01:37:39.710Z,13.94
2016-06-08T01:38:23.603Z,14
2016-06-08T01:39:39.746Z,13.93
2016-06-08T01:40:21.968Z,13.95
2016-06-08T01:42:23.223Z,14.01
2016-06-08T01:42:41.988Z,13.91
2016-06-08T01:43:42.008Z,13.97
2016-06-08T01:44:42.025Z,13.93
2016-06-08T01:45:42.044Z,13.97
2016-06-08T01:47:01.281Z,13.95
2016-06-08T01:48:01.299Z,13.89
2016-06-08T01:49:13.411Z,13.94
2016-06-08T01:49:42.117Z,13.95
2016-06-08T01:50:42.151Z,13.95
2016-06-08T01:51:42.169Z,13.89
2016-06-08T01:52:42.047Z,13.86
2016-06-08T01:53:43.643Z,13.86
2016-06-08T01:54:42.224Z,13.8
2016-06-08T01:55:42.336Z,13.85
2016-06-08T01:56:55.776Z,13.83
2016-06-08T01:57:55.045Z,13.8
2016-06-08T01:58:42.329Z,13.82
2016-06-08T01:59:42.363Z,13.85
2016-06-08T02:00:55.084Z,13.7
2016-06-08T02:01:45.415Z,13.78
2016-06-08T02:02:42.403Z,13.7
2016-06-08T02:03:48.686Z,13.64
2016-06-08T02:05:42.456Z,13.46
2016-06-08T02:06:42.475Z,13.46
2016-06-08T02:07:42.494Z,13.43
2016-06-08T02:08:55.247Z,13.42
2016-06-08T02:09:45.561Z,13.43
2016-06-08T02:10:42.580Z,13.4
2016-06-08T02:11:58.347Z,13.4
2016-06-08T02:12:45.633Z,13.37
2016-06-08T02:14:08.291Z,13.3
2016-06-08T02:14:42.638Z,13.36
2016-06-08T02:16:13.953Z,13.23
2016-06-08T02:16:42.690Z,13.19
2016-06-08T02:18:57.946Z,13.23
2016-06-08T02:19:57.979Z,13.05
2016-06-08T02:20:57.997Z,13.11
2016-06-08T02:22:17.203Z,13.06
2016-06-08T02:23:01.159Z,13.11
2016-06-08T02:24:26.837Z,13.02
2016-06-08T02:25:10.774Z,12.98
2016-06-08T02:26:30.013Z,13.03
2016-06-08T02:27:23.406Z,12.99
2016-06-08T02:28:11.390Z,13.02
2016-06-08T02:29:12.268Z,13.05
2016-06-08T02:30:23.664Z,13.11
2016-06-08T02:31:10.898Z,13.19
2016-06-08T02:32:10.746Z,13.27
2016-06-08T02:33:13.811Z,13.2
2016-06-08T02:34:10.954Z,13.27
2016-06-08T02:35:10.989Z,13.24
2016-06-08T02:36:30.212Z,13.27
2016-06-08T02:37:30.215Z,13.23
2016-06-08T02:38:42.311Z,13.4
2016-06-08T02:40:11.080Z,13.33
2016-06-08T02:41:12.505Z,13.43
2016-06-08T02:42:11.116Z,13.43
2016-06-08T02:43:11.228Z,13.37
2016-06-08T02:44:30.374Z,13.3
2016-06-08T02:45:14.155Z,13.21
2016-06-08T02:46:33.520Z,13.23
2016-06-08T02:47:27.086Z,13.28
2016-06-08T02:48:40.072Z,13.21
2016-06-08T02:49:45.685Z,13.37
2016-06-08T02:50:17.466Z,13.39
2016-06-08T02:51:14.453Z,13.24
2016-06-08T02:53:17.037Z,13.37
2016-06-08T02:53:48.883Z,13.39
2016-06-08T02:54:29.698Z,13.42
2016-06-08T02:56:00.998Z,13.37
2016-06-08T02:56:39.735Z,13.37
2016-06-08T02:58:10.612Z,13.42
2016-06-08T02:58:48.756Z,13.45
2016-06-08T03:00:39.495Z,13.43
2016-06-08T03:00:56.698Z,13.42
2016-06-08T03:01:55.187Z,13.4
2016-06-08T03:02:55.219Z,13.4
2016-06-08T03:03:55.238Z,13.39
2016-06-08T03:05:14.490Z,13.37
2016-06-08T03:06:08.025Z,13.4
2016-06-08T03:07:26.592Z,13.43
2016-06-08T03:08:10.514Z,13.39
2016-06-08T03:09:29.801Z,13.4
2016-06-08T03:10:23.303Z,13.36
2016-06-08T03:11:41.963Z,13.43
2016-06-08T03:12:11.431Z,13.39
2016-06-08T03:13:10.684Z,13.46
2016-06-08T03:14:10.624Z,13.46
2016-06-08T03:15:10.674Z,13.58
2016-06-08T03:16:23.413Z,13.55
2016-06-08T03:17:10.694Z,13.55
2016-06-08T03:18:36.435Z,13.58
2016-06-08T03:19:46.125Z,13.64
2016-06-08T03:21:52.286Z,13.67
2016-06-08T03:22:36.320Z,13.7
2016-06-08T03:23:36.291Z,13.65
2016-06-08T03:24:49.044Z,13.7
2016-06-08T03:25:37.751Z,13.73
2016-06-08T03:28:11.974Z,13.79
2016-06-08T03:28:58.602Z,13.86
2016-06-08T03:30:17.776Z,13.76
2016-06-08T03:31:01.732Z,13.85
2016-06-08T03:32:01.734Z,13.8
2016-06-08T03:33:14.487Z,13.8
2016-06-08T03:34:01.804Z,13.97
2016-06-08T03:35:27.496Z,13.87
2016-06-08T03:36:01.949Z,13.83
2016-06-08T03:37:33.158Z,13.97
2016-06-08T03:38:14.658Z,13.93
2016-06-08T03:39:01.879Z,13.97
2016-06-08T03:40:01.991Z,14.01
2016-06-08T03:41:01.916Z,13.98
2016-06-08T03:42:28.515Z,14
2016-06-08T03:43:38.064Z,14
2016-06-08T03:44:34.583Z,14.04
2016-06-08T03:45:41.226Z,13.97
2016-06-08T03:46:37.963Z,13.97
2016-06-08T03:47:44.387Z,14.05
2016-06-08T03:48:41.063Z,14.01
2016-06-08T03:49:28.361Z,14.08
2016-06-08T03:50:54.068Z,14.11
2016-06-08T03:51:38.210Z,14.2
2016-06-08T03:52:38.151Z,14.22
2016-06-08T03:55:18.954Z,14.26
2016-06-08T03:56:19.081Z,14.22
2016-06-08T03:57:32.211Z,14.2
2016-06-08T03:58:20.445Z,14.23
2016-06-08T03:59:44.905Z,14.2
2016-06-08T04:00:28.829Z,14.22
2016-06-08T04:03:09.990Z,14.4
2016-06-08T04:04:10.024Z,14.44
2016-06-08T04:05:10.042Z,14.43
2016-06-08T04:06:22.907Z,14.41
2016-06-08T04:07:22.832Z,14.38
2016-06-08T04:09:12.694Z,14.43
2016-06-08T04:09:37.915Z,14.48
2016-06-08T04:10:37.965Z,14.49
2016-06-08T04:11:41.014Z,14.59
2016-06-08T04:12:51.392Z,14.55
2016-06-08T04:13:50.754Z,14.45
2016-06-08T04:15:09.414Z,14.55
2016-06-08T04:16:00.448Z,14.55
2016-06-08T04:17:38.233Z,14.58
2016-06-08T04:18:16.593Z,14.58
2016-06-08T04:20:31.819Z,14.62
2016-06-08T04:21:51.104Z,14.66
2016-06-08T04:22:47.779Z,14.7
2016-06-08T04:23:54.266Z,14.63
2016-06-08T04:25:32.052Z,14.7
2016-06-08T04:26:03.958Z,14.74
2016-06-08T04:26:44.743Z,14.68
2016-06-08T04:28:47.326Z,14.78
2016-06-08T04:29:25.672Z,14.78
2016-06-08T04:30:00.000Z,14.77
2016-06-08T04:32:02.600Z,14.7
2016-06-08T04:32:34.352Z,14.77
2016-06-08T04:33:15.274Z,14.79
2016-06-08T04:35:56.204Z,14.86
2016-06-08T04:36:30.566Z,14.93
2016-06-08T04:38:45.790Z,14.96
2016-06-08T04:39:45.809Z,14.99
2016-06-08T04:41:49.845Z,14.99
2016-06-08T04:42:28.161Z,14.99
2016-06-08T04:43:02.958Z,14.93
2016-06-08T04:45:17.775Z,15.14
2016-06-08T04:46:37.031Z,15.12
2016-06-08T04:47:17.797Z,15.11
2016-06-08T04:48:49.161Z,15.14
2016-06-08T04:49:19.239Z,15.11
2016-06-08T04:50:17.913Z,15.11
2016-06-08T04:51:30.638Z,15.22
2016-06-08T04:52:17.903Z,15.27
2016-06-08T04:54:14.925Z,15.3
2016-06-08T04:55:21.115Z,15.27
2016-06-08T04:55:52.961Z,15.36
2016-06-08T04:57:02.573Z,15.29
2016-06-08T04:57:56.919Z,15.41
2016-06-08T04:59:08.219Z,15.45
2016-06-08T04:59:56.174Z,15.37
2016-06-08T05:00:36.974Z,15.35
2016-06-08T05:02:08.273Z,15.36
2016-06-08T05:02:46.589Z,15.39
2016-06-08T05:04:17.905Z,15.51
2016-06-08T05:04:49.735Z,15.51
2016-06-08T05:05:49.754Z,15.47
2016-06-08T05:06:59.212Z,15.41
2016-06-08T05:08:08.991Z,15.39
2016-06-08T05:09:08.864Z,15.39
2016-06-08T05:10:21.642Z,15.29
2016-06-08T05:11:40.884Z,15.33
2016-06-08T05:12:34.485Z,15.47
2016-06-08T05:13:47.272Z,15.45
2016-06-08T05:14:40.311Z,15.5
2016-06-08T05:15:53.067Z,15.43
2016-06-08T05:16:09.035Z,15.52
2016-06-08T05:17:28.295Z,15.45
2016-06-08T05:18:11.999Z,15.48
2016-06-08T05:19:40.475Z,15.35
2016-06-08T05:20:15.413Z,15.41
2016-06-08T05:21:09.104Z,15.44
2016-06-08T05:22:09.218Z,15.45
2016-06-08T05:23:09.220Z,15.29
2016-06-08T05:24:28.461Z,15.33
2016-06-08T05:25:21.867Z,15.35
2016-06-08T05:27:22.061Z,15.25
2016-06-08T05:28:09.454Z,15.27
2016-06-08T05:29:22.098Z,15.47
2016-06-08T05:30:10.789Z,15.48
2016-06-08T05:31:35.076Z,15.32
2016-06-08T05:32:19.013Z,15.35
2016-06-08T05:33:38.238Z,15.33
2016-06-08T05:34:22.144Z,15.25
2016-06-08T05:35:50.368Z,15.37
2016-06-08T05:36:28.542Z,15.43
2016-06-08T05:38:31.298Z,15.45
2016-06-08T05:38:43.939Z,15.43
2016-06-08T05:39:44.019Z,15.44
2016-06-08T05:40:56.710Z,15.45
2016-06-08T05:41:43.978Z,15.41
2016-06-08T05:43:03.543Z,15.35
2016-06-08T05:43:45.108Z,15.39
2016-06-08T05:45:12.767Z,15.26
2016-06-08T05:45:56.723Z,15.27
2016-06-08T05:46:56.742Z,15.39
2016-06-08T05:47:58.181Z,15.35
2016-06-08T05:49:09.528Z,15.43
2016-06-08T05:49:56.672Z,15.48
2016-06-08T05:50:58.236Z,15.44
2016-06-08T05:51:56.833Z,15.43
2016-06-08T05:52:56.867Z,15.47
2016-06-08T05:53:58.307Z,15.51
2016-06-08T05:54:57.013Z,15.52
2016-06-08T05:55:56.937Z,15.48
2016-06-08T05:56:56.784Z,15.57
2016-06-08T05:58:10.161Z,15.54
2016-06-08T05:58:56.993Z,15.57
2016-06-08T06:00:22.713Z,15.73
2016-06-08T06:00:57.029Z,15.76
2016-06-08T06:01:57.063Z,15.8
2016-06-08T06:02:57.065Z,15.96
2016-06-08T06:03:56.943Z,15.99
2016-06-08T06:04:57.117Z,16.03
2016-06-08T06:06:09.918Z,15.94
2016-06-08T06:06:57.171Z,15.96
2016-06-08T06:07:57.188Z,15.99
2016-06-08T06:09:09.940Z,15.84
2016-06-08T06:09:57.240Z,15.83
2016-06-08T06:12:28.983Z,15.87
2016-06-08T06:13:09.655Z,15.83
2016-06-08T06:14:11.236Z,15.83
2016-06-08T06:15:22.582Z,15.81
2016-06-08T06:18:37.905Z,15.78
2016-06-08T06:19:37.720Z,15.78
2016-06-08T06:20:57.130Z,15.73
2016-06-08T06:21:37.929Z,15.73
2016-06-08T06:23:09.244Z,15.75
2016-06-08T06:23:41.122Z,15.75
2016-06-08T06:24:41.125Z,15.67
2016-06-08T06:25:53.861Z,15.76
2016-06-08T06:28:07.430Z,15.75
2016-06-08T06:28:41.479Z,15.66
2016-06-08T06:29:41.232Z,15.78
2016-06-08T06:30:53.968Z,15.84
2016-06-08T06:31:41.112Z,15.83
2016-06-08T06:32:41.272Z,15.9
2016-06-08T06:33:54.055Z,15.94
2016-06-08T06:34:41.167Z,16.02
2016-06-08T06:35:41.374Z,15.99
2016-06-08T06:36:41.376Z,15.98
2016-06-08T06:37:41.238Z,15.99
2016-06-08T06:38:41.256Z,15.94
2016-06-08T06:39:41.431Z,15.84
2016-06-08T06:40:41.496Z,15.92
2016-06-08T06:41:54.217Z,15.99
2016-06-08T06:42:41.736Z,15.99
2016-06-08T06:43:41.551Z,16.03
2016-06-08T06:44:41.554Z,16.03
2016-06-08T06:45:42.994Z,16.02
2016-06-08T06:46:41.590Z,16.18
2016-06-08T06:47:41.671Z,16.26
2016-06-08T06:48:41.642Z,16.43
2016-06-08T06:49:41.645Z,16.44
2016-06-08T06:50:41.678Z,16.5
2016-06-08T06:51:41.760Z,16.46
2016-06-08T06:52:41.716Z,16.29
2016-06-08T06:53:54.328Z,16.26
2016-06-08T06:54:41.769Z,16.28
2016-06-08T06:56:13.083Z,16.29
2016-06-08T06:56:41.805Z,16.34
2016-06-08T06:57:41.854Z,16.26
2016-06-08T06:58:42.185Z,16.44
2016-06-08T06:59:41.875Z,16.5
2016-06-08T07:00:43.315Z,16.55
2016-06-08T07:01:54.662Z,16.61
2016-06-08T07:02:41.805Z,16.76
2016-06-08T07:03:41.964Z,16.8
2016-06-08T07:04:41.967Z,16.92
2016-06-08T07:07:23.051Z,17.04
2016-06-08T07:07:57.382Z,17.04
2016-06-08T07:10:14.090Z,17.07
2016-06-08T07:11:14.123Z,16.92
2016-06-08T07:12:14.126Z,16.69
2016-06-08T07:13:14.379Z,16.62
2016-06-08T07:14:14.944Z,16.58
2016-06-08T07:15:14.212Z,16.43
2016-06-08T07:16:14.214Z,16.44
2016-06-08T07:17:26.971Z,16.44
2016-06-08T07:18:14.268Z,16.28
2016-06-08T07:19:14.302Z,16.29
2016-06-08T07:20:27.060Z,16.5
2016-06-08T07:21:27.081Z,16.43
2016-06-08T07:22:14.378Z,16.43
2016-06-08T07:23:14.383Z,16.44
2016-06-08T07:24:27.119Z,16.34
2016-06-08T07:25:14.405Z,16.49
2016-06-08T07:26:40.128Z,16.5
2016-06-08T07:27:30.334Z,16.57
2016-06-08T07:28:30.618Z,16.51
2016-06-08T07:29:43.230Z,16.68
2016-06-08T07:30:30.405Z,16.89
2016-06-08T07:31:30.422Z,16.84
2016-06-08T07:32:49.675Z,16.94
2016-06-08T07:33:30.475Z,16.92
2016-06-08T07:34:56.218Z,16.95
2016-06-08T07:35:40.048Z,17.01
2016-06-08T07:36:59.270Z,17.19
2016-06-08T07:37:41.508Z,17.31
2016-06-08T07:39:05.823Z,17.31
2016-06-08T07:40:15.216Z,17.35
2016-06-08T07:40:56.099Z,17.38
2016-06-08T07:42:27.211Z,17.32
2016-06-08T07:43:09.166Z,17.38
2016-06-08T07:44:31.000Z,17.44
2016-06-08T07:45:12.625Z,17.54
2016-06-08T07:45:59.768Z,17.72
2016-06-08T07:47:19.224Z,17.76
2016-06-08T07:48:28.807Z,17.75
2016-06-08T07:49:12.604Z,17.63
2016-06-08T07:50:38.282Z,17.68
2016-06-08T07:51:53.498Z,17.46
2016-06-08T07:53:02.954Z,17.39
2016-06-08T07:55:07.349Z,17.37
2016-06-08T07:55:51.352Z,17.31
2016-06-08T07:56:51.342Z,17.37
2016-06-08T07:58:54.269Z,17.38
2016-06-08T07:59:32.897Z,17.37
2016-06-08T08:00:06.943Z,17.44
2016-06-08T08:02:09.652Z,17.31
2016-06-08T08:02:22.417Z,17.3
2016-06-08T08:03:22.467Z,17.32
2016-06-08T08:04:35.206Z,17.27
2016-06-08T08:05:22.488Z,17.3
2016-06-08T08:06:48.119Z,17.39
2016-06-08T08:07:22.619Z,17.32
2016-06-08T08:09:25.203Z,17.39
2016-06-08T08:10:03.783Z,17.3
2016-06-08T08:10:37.895Z,17.39
2016-06-08T08:12:40.497Z,17.37
2016-06-08T08:13:15.310Z,17.59
2016-06-08T08:13:57.125Z,17.68
2016-06-08T08:15:22.025Z,17.79
2016-06-08T08:16:31.655Z,17.82
2016-06-08T08:17:25.187Z,17.49
2016-06-08T08:19:11.786Z,17.66
2016-06-08T08:19:53.164Z,17.6
2016-06-08T08:20:40.432Z,17.65
2016-06-08T08:21:59.810Z,17.71
2016-06-08T08:22:53.390Z,17.82
2016-06-08T08:24:11.879Z,17.9
2016-06-08T08:24:43.757Z,18
2016-06-08T08:25:43.867Z,17.98
2016-06-08T08:27:02.980Z,17.8
2016-06-08T08:27:43.826Z,17.87
2016-06-08T08:29:15.454Z,17.84
2016-06-08T08:29:47.629Z,17.97
2016-06-08T08:31:18.678Z,18.09
2016-06-08T08:31:56.853Z,18.24
2016-06-08T08:32:57.027Z,18.33
2016-06-08T08:33:57.061Z,18.24
2016-06-08T08:34:57.079Z,18.31
2016-06-08T08:35:58.519Z,18.34
2016-06-08T08:37:03.553Z,18.27
2016-06-08T08:37:57.009Z,18.18
2016-06-08T08:39:16.481Z,18.08
2016-06-08T08:39:57.250Z,18.02
2016-06-08T08:41:54.223Z,18
2016-06-08T08:43:04.008Z,18.11
2016-06-08T08:44:13.651Z,18.13
2016-06-08T08:44:46.606Z,18.16
2016-06-08T08:45:30.656Z,18.26
2016-06-08T08:46:30.518Z,18.33
2016-06-08T08:47:43.411Z,18.31
2016-06-08T08:48:56.679Z,18.3
2016-06-08T08:50:06.291Z,18.13
2016-06-08T08:51:41.578Z,18.06
2016-06-08T08:52:03.218Z,17.97
2016-06-08T08:53:28.909Z,17.98
2016-06-08T08:54:38.320Z,17.98
2016-06-08T08:56:22.276Z,17.95
2016-06-08T08:58:06.548Z,17.78
2016-06-08T08:59:24.910Z,17.87
2016-06-08T09:00:12.632Z,17.84
2016-06-08T09:00:53.617Z,17.79
2016-06-08T09:02:56.171Z,17.56
2016-06-08T09:03:29.437Z,17.73
2016-06-08T09:04:10.111Z,17.75
2016-06-08T09:06:51.056Z,17.75
2016-06-08T09:07:26.869Z,17.8
2016-06-08T09:09:40.689Z,17.79
2016-06-08T09:10:40.723Z,17.86
2016-06-08T09:11:40.600Z,17.87
2016-06-08T09:12:40.775Z,18
2016-06-08T09:13:40.763Z,17.84
2016-06-08T09:14:40.734Z,17.76
2016-06-08T09:16:00.143Z,17.78
2016-06-08T09:16:40.880Z,17.75
2016-06-08T09:18:12.195Z,17.69
2016-06-08T09:18:48.588Z,17.66
2016-06-08T09:19:40.966Z,17.6
2016-06-08T09:21:50.910Z,17.76
2016-06-08T09:22:16.160Z,17.76
2016-06-08T09:23:03.427Z,17.72
2016-06-08T09:24:03.477Z,17.79
2016-06-08T09:25:03.354Z,17.79
2016-06-08T09:26:03.560Z,17.79
2016-06-08T09:27:22.751Z,17.75
2016-06-08T09:28:32.412Z,17.75
2016-06-08T09:29:06.787Z,17.69
2016-06-08T09:30:06.773Z,17.69
2016-06-08T09:31:19.527Z,17.65
2016-06-08T09:32:19.623Z,17.63
2016-06-08T09:33:32.534Z,17.66
2016-06-08T09:34:42.022Z,17.71
2016-06-08T09:35:29.490Z,17.86
2016-06-08T09:37:19.214Z,17.8
2016-06-08T09:37:51.139Z,17.82
2016-06-08T09:39:53.614Z,17.88
2016-06-08T09:40:06.239Z,17.76
2016-06-08T09:41:06.273Z,17.88
2016-06-08T09:42:06.291Z,17.76
2016-06-08T09:43:06.309Z,17.78
2016-06-08T09:44:25.515Z,17.94
2016-06-08T09:45:08.347Z,17.94
2016-06-08T09:46:37.664Z,17.94
2016-06-08T09:47:16.039Z,17.73
2016-06-08T09:48:47.341Z,17.78
2016-06-08T09:49:31.922Z,17.8
2016-06-08T09:52:44.710Z,17.84
2016-06-08T09:53:50.980Z,17.72
2016-06-08T09:56:00.047Z,17.86
2016-06-08T09:56:25.422Z,17.84
2016-06-08T09:57:12.768Z,17.86
2016-06-08T09:59:09.696Z,17.88
2016-06-08T09:59:49.995Z,17.8
2016-06-08T10:00:33.998Z,17.79
2016-06-08T10:03:39.693Z,17.8
2016-06-08T10:04:08.428Z,17.86
2016-06-08T10:06:18.090Z,17.82
2016-06-08T10:07:49.409Z,17.88
2016-06-08T10:08:33.347Z,17.93
2016-06-08T10:09:33.429Z,18.06
2016-06-08T10:10:33.400Z,18.11
2016-06-08T10:11:33.434Z,18.08
2016-06-08T10:12:43.062Z,18.09
2016-06-08T10:13:44.924Z,18.03
2016-06-08T10:14:50.802Z,17.95
2016-06-08T10:16:45.808Z,17.97
2016-06-08T10:17:17.495Z,18.02
2016-06-08T10:18:11.247Z,17.91
2016-06-08T10:19:30.437Z,17.98
2016-06-08T10:20:18.971Z,17.94
2016-06-08T10:21:36.992Z,17.88
2016-06-08T10:22:46.619Z,17.9
2016-06-08T10:23:30.651Z,17.84
2016-06-08T10:24:30.466Z,17.95
2016-06-08T10:25:39.877Z,18.16
2016-06-08T10:26:59.287Z,18.23
2016-06-08T10:27:46.399Z,18.33
2016-06-08T10:29:04.980Z,18.58
2016-06-08T10:29:48.951Z,18.64
2016-06-08T10:30:48.954Z,18.7
2016-06-08T10:32:04.831Z,18.64
2016-06-08T10:32:52.132Z,18.61
2016-06-08T10:34:11.978Z,18.7
2016-06-08T10:35:21.402Z,18.66
2016-06-08T10:36:18.951Z,18.79
2016-06-08T10:37:18.970Z,18.7
2016-06-08T10:38:31.739Z,18.6
2016-06-08T10:39:31.757Z,18.61
2016-06-08T10:40:44.731Z,18.58
2016-06-08T10:42:00.609Z,18.68
2016-06-08T10:42:47.892Z,18.83
2016-06-08T10:44:03.145Z,18.91
2016-06-08T10:46:13.556Z,18.92
2016-06-08T10:47:13.591Z,18.91
2016-06-08T10:48:13.577Z,18.96
2016-06-08T10:49:13.627Z,19.19
2016-06-08T10:50:13.489Z,19.2
2016-06-08T10:51:33.291Z,19.09
2016-06-08T10:52:15.151Z,19.12
2016-06-08T10:54:16.282Z,19.32
2016-06-08T10:54:47.988Z,19.32
2016-06-08T10:55:29.019Z,19.29
2016-06-08T10:57:00.289Z,19.08
2016-06-08T10:57:44.338Z,19.16
2016-06-08T10:59:58.048Z,19.24
2016-06-08T11:01:17.238Z,19.22
2016-06-08T11:02:23.569Z,19.22
2016-06-08T11:03:20.118Z,19.17
2016-06-08T11:04:07.543Z,19.16
2016-06-08T11:05:27.920Z,19.22
2016-06-08T11:06:09.032Z,19.09
2016-06-08T11:07:38.913Z,19.08
2016-06-08T11:08:17.320Z,19.09
2016-06-08T11:10:32.575Z,19.08
2016-06-08T11:11:32.733Z,19.39
2016-06-08T11:13:40.225Z,19.63
2016-06-08T11:14:33.319Z,19.63
2016-06-08T11:15:32.759Z,19.57
2016-06-08T11:16:32.762Z,19.39
2016-06-08T11:17:32.764Z,19.53
2016-06-08T11:18:45.536Z,19.64
2016-06-08T11:19:52.038Z,19.7
2016-06-08T11:21:04.151Z,19.84
2016-06-08T11:21:55.233Z,19.89
2016-06-08T11:23:32.999Z,19.66
2016-06-08T11:24:37.005Z,19.79
2016-06-08T11:25:46.539Z,19.81
2016-06-08T11:26:40.042Z,19.56
2016-06-08T11:27:52.685Z,19.57
2016-06-08T11:29:49.972Z,19.24
2016-06-08T11:30:30.910Z,19.2
2016-06-08T11:31:56.618Z,19
2016-06-08T11:32:33.977Z,18.92
2016-06-08T11:34:02.264Z,18.73
2016-06-08T11:34:50.204Z,18.71
2016-06-08T11:35:31.048Z,18.85
2016-06-08T11:37:28.037Z,18.76
2016-06-08T11:37:40.509Z,18.71
2016-06-08T11:38:59.761Z,18.61
2016-06-08T11:39:40.264Z,18.67
2016-06-08T11:41:06.299Z,18.43
2016-06-08T11:41:50.207Z,18.57
2016-06-08T11:43:15.789Z,18.42
2016-06-08T11:45:02.575Z,18.3
2016-06-08T11:45:33.934Z,18.27
2016-06-08T11:46:31.078Z,18.16
2016-06-08T11:47:43.895Z,18.23
2016-06-08T11:48:34.161Z,18.24
2016-06-08T11:49:43.947Z,18.16
2016-06-08T11:50:34.057Z,17.94
2016-06-08T11:51:56.875Z,18.08
2016-06-08T11:52:37.502Z,18.18
2016-06-08T11:53:56.927Z,18.16
2016-06-08T11:54:42.117Z,18.26
2016-06-08T11:56:06.573Z,18.37
2016-06-08T11:56:40.920Z,18.61
2016-06-08T11:58:12.250Z,18.97
2016-06-08T11:58:43.831Z,18.96
2016-06-08T12:00:58.071Z,19.59
2016-06-08T12:01:57.760Z,19.9
2016-06-08T12:02:57.780Z,20.04
2016-06-08T12:03:59.110Z,20.22
2016-06-08T12:04:59.268Z,20.22
2016-06-08T12:06:33.257Z,20.39
2016-06-08T12:08:57.140Z,19.84
2016-06-08T12:09:44.298Z,19.92
2016-06-08T12:10:44.301Z,20.11
2016-06-08T12:11:44.492Z,20.07
2016-06-08T12:12:57.275Z,20.21
2016-06-08T12:13:44.528Z,20.34
2016-06-08T12:15:15.875Z,20.15
2016-06-08T12:15:54.205Z,20.04
2016-06-08T12:17:56.836Z,20.02
2016-06-08T12:18:09.351Z,20.11
2016-06-08T12:19:09.385Z,20.18
2016-06-08T12:20:10.669Z,20.24
2016-06-08T12:21:09.436Z,20.27
2016-06-08T12:22:22.205Z,20.37
2016-06-08T12:23:22.208Z,20.37
2016-06-08T12:24:30.164Z,20.58
2016-06-08T12:25:35.197Z,20.8
2016-06-08T12:27:12.125Z,21
2016-06-08T12:27:50.425Z,21.01
2016-06-08T12:28:24.863Z,21.03
2016-06-08T12:29:56.102Z,21.05
2016-06-08T12:30:34.290Z,21.07
2016-06-08T12:31:34.401Z,21.13
2016-06-08T12:32:47.032Z,21.07
2016-06-08T12:33:34.360Z,21.07
2016-06-08T12:35:34.381Z,21.07
2016-06-08T12:36:12.399Z,20.96
2016-06-08T12:37:05.777Z,20.9
2016-06-08T12:38:21.014Z,20.9
2016-06-08T12:38:51.189Z,20.9
2016-06-08T12:39:49.770Z,21.13
2016-06-08T12:41:05.022Z,21.15
2016-06-08T12:42:05.025Z,21.35
2016-06-08T12:43:08.090Z,21.53
2016-06-08T12:44:24.312Z,21.7
2016-06-08T12:45:24.673Z,22.04
2016-06-08T12:46:36.426Z,22.1
2016-06-08T12:47:36.461Z,22.12
2016-06-08T12:48:05.197Z,22.1
2016-06-08T12:49:05.231Z,22.08
2016-06-08T12:50:17.984Z,22.12
2016-06-08T12:51:08.299Z,22.18
2016-06-08T12:52:30.989Z,22.4
2016-06-08T12:53:46.869Z,22.59
2016-06-08T12:54:15.041Z,22.68
2016-06-08T12:57:58.975Z,22.07
2016-06-08T12:58:58.993Z,22
2016-06-08T13:01:22.967Z,22.28
2016-06-08T13:02:23.141Z,22.31
2016-06-08T13:03:35.894Z,22.25
2016-06-08T13:04:26.240Z,22.12
2016-06-08T13:05:48.902Z,21.58
2016-06-08T13:06:29.527Z,20.88
2016-06-08T13:07:57.610Z,21.32
2016-06-08T13:08:36.017Z,21.68
2016-06-08T13:10:07.256Z,22.22
2016-06-08T13:10:51.869Z,22.31
2016-06-08T13:11:39.012Z,22.44
2016-06-08T13:12:58.420Z,22.33
2016-06-08T13:15:08.051Z,22.52
2016-06-08T13:16:23.132Z,22.7
2016-06-08T13:17:29.306Z,22.62
2016-06-08T13:18:07.153Z,22.59
2016-06-08T13:20:09.720Z,22.63
2016-06-08T13:20:48.162Z,22.8
2016-06-08T13:21:22.443Z,22.71
2016-06-08T13:22:22.476Z,22.78
2016-06-08T13:23:22.478Z,22.56
2016-06-08T13:24:41.734Z,22.21
2016-06-08T13:25:24.156Z,22.33
2016-06-08T13:27:37.836Z,22.04
2016-06-08T13:28:37.886Z,22.04
2016-06-08T13:29:57.091Z,21.53
2016-06-08T13:30:55.079Z,21.74
2016-06-08T13:31:41.160Z,21.89
2016-06-08T13:33:06.834Z,22.21
2016-06-08T13:33:53.915Z,22.06
2016-06-08T13:35:15.621Z,21.91
2016-06-08T13:36:06.718Z,22.06
2016-06-08T13:36:47.563Z,22.07
2016-06-08T13:39:28.506Z,22.03
2016-06-08T13:40:02.838Z,22.07
2016-06-08T13:42:08.999Z,21.75
2016-06-08T13:43:04.345Z,21.65
2016-06-08T13:44:22.160Z,21.97
2016-06-08T13:45:06.429Z,21.96
2016-06-08T13:47:18.512Z,22.15
2016-06-08T13:48:18.640Z,22.03
2016-06-08T13:50:21.145Z,22.06
2016-06-08T13:50:53.023Z,21.85
2016-06-08T13:51:33.742Z,21.94
2016-06-08T13:53:36.434Z,21.75
2016-06-08T13:54:14.875Z,22.04
2016-06-08T13:54:49.236Z,22.18
2016-06-08T13:56:20.568Z,22.3
2016-06-08T13:57:05.305Z,22.33
2016-06-08T13:58:30.307Z,22.03
2016-06-08T13:59:14.280Z,21.89
2016-06-08T14:00:14.250Z,21.81
2016-06-08T14:01:14.331Z,21.8
2016-06-08T14:02:14.333Z,21.89
2016-06-08T14:03:27.086Z,21.54
2016-06-08T14:04:14.418Z,21.5
2016-06-08T14:05:14.421Z,21.47
2016-06-08T14:06:14.485Z,21.66
2016-06-08T14:07:14.472Z,22.08
2016-06-08T14:08:14.569Z,22.04
2016-06-08T14:09:14.540Z,22.1
2016-06-08T14:10:33.776Z,22.03
2016-06-08T14:11:43.079Z,22.1
2016-06-08T14:14:36.378Z,22.34
2016-06-08T14:15:01.915Z,22.07
2016-06-08T14:16:02.765Z,22.1